sensor_id;sensor_type;location;lat;lon;timestamp;pressure;altitude;pressure_sealevel;temperature;humidity
43757;BME280;73222;41.866;12.462;2023-11-21T00:01:00;100773.72;;;16.11;100.00
43757;BME280;73222;41.866;12.462;2023-11-21T00:03:29;100769.25;;;16.16;100.00
43757;BME280;73222;41.866;12.462;2023-11-21T00:05:55;100762.25;;;16.18;100.00
43757;BME280;73222;41.866;12.462;2023-11-21T00:08:20;100757.81;;;16.23;100.00
43757;BME280;73222;41.866;12.462;2023-11-21T00:10:46;100756.91;;;16.24;100.00
43757;BME280;73222;41.866;12.462;2023-11-21T00:13:11;100753.47;;;16.22;100.00
43757;BME280;73222;41.866;12.462;2023-11-21T00:15:37;100754.34;;;16.23;100.00
43757;BME280;73222;41.866;12.462;2023-11-21T00:18:03;100743.84;;;16.24;100.00
43757;BME280;73222;41.866;12.462;2023-11-21T00:20:28;100738.59;;;16.27;100.00
43757;BME280;73222;41.866;12.462;2023-11-21T00:22:54;100737.75;;;16.25;100.00
43757;BME280;73222;41.866;12.462;2023-11-21T00:25:19;100736.09;;;16.19;100.00
43757;BME280;73222;41.866;12.462;2023-11-21T00:27:45;100736.97;;;16.20;100.00
43757;BME280;73222;41.866;12.462;2023-11-21T00:30:11;100739.63;;;16.17;100.00
43757;BME280;73222;41.866;12.462;2023-11-21T00:32:37;100739.59;;;16.20;100.00
43757;BME280;73222;41.866;12.462;2023-11-21T00:35:03;100729.06;;;16.23;100.00
43757;BME280;73222;41.866;12.462;2023-11-21T00:37:29;100723.91;;;16.20;100.00
43757;BME280;73222;41.866;12.462;2023-11-21T00:39:54;100728.16;;;16.26;100.00
43757;BME280;73222;41.866;12.462;2023-11-21T00:42:19;100723.03;;;16.21;100.00
43757;BME280;73222;41.866;12.462;2023-11-21T00:44:46;100721.31;;;16.20;100.00
43757;BME280;73222;41.866;12.462;2023-11-21T00:47:12;100713.41;;;16.23;100.00
43757;BME280;73222;41.866;12.462;2023-11-21T00:49:37;100708.19;;;16.23;100.00
43757;BME280;73222;41.866;12.462;2023-11-21T00:52:04;100713.31;;;16.29;100.00
43757;BME280;73222;41.866;12.462;2023-11-21T00:54:30;100699.34;;;16.30;100.00
43757;BME280;73222;41.866;12.462;2023-11-21T00:56:56;100708.13;;;16.26;100.00
43757;BME280;73222;41.866;12.462;2023-11-21T00:59:22;100698.56;;;16.25;100.00
43757;BME280;73222;41.866;12.462;2023-11-21T01:01:48;100695.13;;;16.23;100.00
43757;BME280;73222;41.866;12.462;2023-11-21T01:04:14;100688.19;;;16.22;100.00
43757;BME280;73222;41.866;12.462;2023-11-21T01:06:39;100683.06;;;16.16;100.00
43757;BME280;73222;41.866;12.462;2023-11-21T01:09:04;100690.88;;;16.19;100.00
43757;BME280;73222;41.866;12.462;2023-11-21T01:11:34;100685.69;;;16.16;100.00
43757;BME280;73222;41.866;12.462;2023-11-21T01:14:03;100686.50;;;16.18;100.00
43757;BME280;73222;41.866;12.462;2023-11-21T01:16:29;100683.97;;;16.15;100.00
43757;BME280;73222;41.866;12.462;2023-11-21T01:18:55;100675.19;;;16.19;100.00
43757;BME280;73222;41.866;12.462;2023-11-21T01:21:20;100673.34;;;16.24;100.00
43757;BME280;73222;41.866;12.462;2023-11-21T01:23:46;100670.72;;;16.24;100.00
43757;BME280;73222;41.866;12.462;2023-11-21T01:26:13;100671.41;;;16.34;100.00
43757;BME280;73222;41.866;12.462;2023-11-21T01:28:38;100674.16;;;16.26;100.00
43757;BME280;73222;41.866;12.462;2023-11-21T01:31:04;100675.06;;;16.25;100.00
43757;BME280;73222;41.866;12.462;2023-11-21T01:33:29;100669.03;;;16.21;100.00
43757;BME280;73222;41.866;12.462;2023-11-21T01:35:55;100672.41;;;16.27;100.00
43757;BME280;73222;41.866;12.462;2023-11-21T01:38:21;100673.34;;;16.24;100.00
43757;BME280;73222;41.866;12.462;2023-11-21T01:40:47;100669.13;;;16.17;100.00
43757;BME280;73222;41.866;12.462;2023-11-21T01:43:12;100663.94;;;16.15;100.00
43757;BME280;73222;41.866;12.462;2023-11-21T01:45:38;100670.91;;;16.13;100.00
43757;BME280;73222;41.866;12.462;2023-11-21T01:48:04;100672.72;;;16.10;100.00
43757;BME280;73222;41.866;12.462;2023-11-21T01:50:32;100670.19;;;16.06;100.00
43757;BME280;73222;41.866;12.462;2023-11-21T01:52:59;100673.63;;;16.09;100.00
43757;BME280;73222;41.866;12.462;2023-11-21T01:55:25;100665.78;;;16.09;100.00
43757;BME280;73222;41.866;12.462;2023-11-21T01:57:53;100660.53;;;16.10;100.00
43757;BME280;73222;41.866;12.462;2023-11-21T02:00:19;100661.41;;;16.11;100.00
43757;BME280;73222;41.866;12.462;2023-11-21T02:02:46;100658.75;;;16.12;100.00
43757;BME280;73222;41.866;12.462;2023-11-21T02:05:13;100656.19;;;16.11;100.00
43757;BME280;73222;41.866;12.462;2023-11-21T02:07:39;100656.13;;;16.14;100.00
43757;BME280;73222;41.866;12.462;2023-11-21T02:10:07;100648.28;;;16.14;100.00
43757;BME280;73222;41.866;12.462;2023-11-21T02:12:33;100642.19;;;16.15;100.00
43757;BME280;73222;41.866;12.462;2023-11-21T02:14:59;100651.81;;;16.11;100.00
43757;BME280;73222;41.866;12.462;2023-11-21T02:17:24;100650.00;;;16.16;100.00
43757;BME280;73222;41.866;12.462;2023-11-21T02:19:50;100652.69;;;16.12;100.00
43757;BME280;73222;41.866;12.462;2023-11-21T02:22:17;100643.97;;;16.13;100.00
43757;BME280;73222;41.866;12.462;2023-11-21T02:24:45;100635.34;;;16.07;100.00
43757;BME280;73222;41.866;12.462;2023-11-21T02:27:12;100637.94;;;16.07;100.00
43757;BME280;73222;41.866;12.462;2023-11-21T02:29:38;100635.31;;;16.11;100.00
43757;BME280;73222;41.866;12.462;2023-11-21T02:32:03;100631.78;;;16.12;100.00
43757;BME280;73222;41.866;12.462;2023-11-21T02:34:29;100619.63;;;16.11;100.00
43757;BME280;73222;41.866;12.462;2023-11-21T02:36:54;100616.16;;;16.09;100.00
43757;BME280;73222;41.866;12.462;2023-11-21T02:39:20;100620.56;;;16.06;100.00
43757;BME280;73222;41.866;12.462;2023-11-21T02:41:47;100618.75;;;16.10;100.00
43757;BME280;73222;41.866;12.462;2023-11-21T02:44:13;100610.03;;;16.11;100.00
43757;BME280;73222;41.866;12.462;2023-11-21T02:46:38;100612.03;;;15.98;100.00
43757;BME280;73222;41.866;12.462;2023-11-21T02:49:05;100612.84;;;16.00;100.00
43757;BME280;73222;41.866;12.462;2023-11-21T02:51:35;100610.19;;;16.03;100.00
43757;BME280;73222;41.866;12.462;2023-11-21T02:54:01;100609.22;;;16.07;100.00
43757;BME280;73222;41.866;12.462;2023-11-21T02:56:31;100605.72;;;16.09;100.00
43757;BME280;73222;41.866;12.462;2023-11-21T02:58:57;100605.72;;;16.09;100.00
43757;BME280;73222;41.866;12.462;2023-11-21T03:01:23;100602.09;;;16.16;100.00
43757;BME280;73222;41.866;12.462;2023-11-21T03:03:51;100590.84;;;16.12;100.00
43757;BME280;73222;41.866;12.462;2023-11-21T03:06:18;100591.66;;;16.16;100.00
43757;BME280;73222;41.866;12.462;2023-11-21T03:08:43;100580.41;;;16.14;100.00
43757;BME280;73222;41.866;12.462;2023-11-21T03:11:09;100584.59;;;16.21;100.00
43757;BME280;73222;41.866;12.462;2023-11-21T03:13:34;100589.94;;;16.15;100.00
43757;BME280;73222;41.866;12.462;2023-11-21T03:16:00;100585.50;;;16.20;100.00
43757;BME280;73222;41.866;12.462;2023-11-21T03:18:25;100575.09;;;16.17;100.00
43757;BME280;73222;41.866;12.462;2023-11-21T03:20:52;100578.47;;;16.24;100.00
43757;BME280;73222;41.866;12.462;2023-11-21T03:23:18;100575.88;;;16.22;100.00
43757;BME280;73222;41.866;12.462;2023-11-21T03:25:43;100581.09;;;16.22;100.00
43757;BME280;73222;41.866;12.462;2023-11-21T03:28:09;100575.06;;;16.20;100.00
43757;BME280;73222;41.866;12.462;2023-11-21T03:30:34;100570.66;;;16.22;100.00
43757;BME280;73222;41.866;12.462;2023-11-21T03:33:00;100577.66;;;16.20;100.00
43757;BME280;73222;41.866;12.462;2023-11-21T03:35:26;100571.53;;;16.21;100.00
43757;BME280;73222;41.866;12.462;2023-11-21T03:37:52;100580.28;;;16.20;100.00
43757;BME280;73222;41.866;12.462;2023-11-21T03:40:17;100579.31;;;16.24;100.00
43757;BME280;73222;41.866;12.462;2023-11-21T03:42:46;100573.28;;;16.20;100.00
43757;BME280;73222;41.866;12.462;2023-11-21T03:45:11;100567.16;;;16.21;100.00
43757;BME280;73222;41.866;12.462;2023-11-21T03:47:37;100556.81;;;16.17;100.00
43757;BME280;73222;41.866;12.462;2023-11-21T03:50:03;100560.28;;;16.19;100.00
43757;BME280;73222;41.866;12.462;2023-11-21T03:52:29;100556.78;;;16.20;100.00
43757;BME280;73222;41.866;12.462;2023-11-21T03:54:55;100551.59;;;16.17;100.00
43757;BME280;73222;41.866;12.462;2023-11-21T03:57:21;100553.31;;;16.18;100.00
43757;BME280;73222;41.866;12.462;2023-11-21T03:59:46;100549.84;;;16.19;100.00
43757;BME280;73222;41.866;12.462;2023-11-21T04:02:12;100544.72;;;16.13;100.00
43757;BME280;73222;41.866;12.462;2023-11-21T04:04:37;100543.84;;;16.12;100.00
43757;BME280;73222;41.866;12.462;2023-11-21T04:07:03;100543.00;;;16.12;100.00
43757;BME280;73222;41.866;12.462;2023-11-21T04:09:29;100535.19;;;16.12;100.00
43757;BME280;73222;41.866;12.462;2023-11-21T04:11:55;100541.34;;;16.06;100.00
43757;BME280;73222;41.866;12.462;2023-11-21T04:14:22;100543.97;;;16.06;100.00
43757;BME280;73222;41.866;12.462;2023-11-21T04:16:47;100547.47;;;16.05;100.00
43757;BME280;73222;41.866;12.462;2023-11-21T04:19:14;100564.00;;;16.07;100.00
43757;BME280;73222;41.866;12.462;2023-11-21T04:21:42;100555.22;;;16.10;100.00
43757;BME280;73222;41.866;12.462;2023-11-21T04:24:08;100551.75;;;16.11;100.00
43757;BME280;73222;41.866;12.462;2023-11-21T04:26:34;100552.56;;;16.13;100.00
43757;BME280;73222;41.866;12.462;2023-11-21T04:28:59;100550.88;;;16.09;100.00
43757;BME280;73222;41.866;12.462;2023-11-21T04:31:25;100555.22;;;16.10;100.00
43757;BME280;73222;41.866;12.462;2023-11-21T04:33:53;100546.56;;;16.07;100.00
43757;BME280;73222;41.866;12.462;2023-11-21T04:36:18;100556.25;;;16.02;100.00
43757;BME280;73222;41.866;12.462;2023-11-21T04:38:45;100554.50;;;16.01;100.00
43757;BME280;73222;41.866;12.462;2023-11-21T04:41:11;100561.53;;;15.99;100.00
43757;BME280;73222;41.866;12.462;2023-11-21T04:43:37;100560.50;;;16.06;100.00
43757;BME280;73222;41.866;12.462;2023-11-21T04:46:02;100558.88;;;16.02;100.00
43757;BME280;73222;41.866;12.462;2023-11-21T04:48:31;100561.44;;;16.04;100.00
43757;BME280;73222;41.866;12.462;2023-11-21T04:50:56;100554.34;;;16.11;100.00
43757;BME280;73222;41.866;12.462;2023-11-21T04:53:22;100550.94;;;16.07;100.00
43757;BME280;73222;41.866;12.462;2023-11-21T04:55:47;100549.94;;;16.13;100.00
43757;BME280;73222;41.866;12.462;2023-11-21T04:58:14;100548.25;;;16.12;100.00
43757;BME280;73222;41.866;12.462;2023-11-21T05:00:39;100551.78;;;16.07;100.00
43757;BME280;73222;41.866;12.462;2023-11-21T05:03:05;100550.88;;;16.09;100.00
43757;BME280;73222;41.866;12.462;2023-11-21T05:05:32;100540.44;;;16.10;100.00
43757;BME280;73222;41.866;12.462;2023-11-21T05:07:59;100543.94;;;16.07;100.00
43757;BME280;73222;41.866;12.462;2023-11-21T05:10:25;100546.56;;;16.07;100.00
43757;BME280;73222;41.866;12.462;2023-11-21T05:12:50;100538.72;;;16.09;100.00
43757;BME280;73222;41.866;12.462;2023-11-21T05:15:16;100541.16;;;16.17;100.00
43757;BME280;73222;41.866;12.462;2023-11-21T05:17:45;100536.91;;;16.11;100.00
43757;BME280;73222;41.866;12.462;2023-11-21T05:20:11;100535.13;;;16.13;100.00
43757;BME280;73222;41.866;12.462;2023-11-21T05:22:39;100532.56;;;16.12;100.00
43757;BME280;73222;41.866;12.462;2023-11-21T05:25:05;100532.41;;;16.18;100.00
43757;BME280;73222;41.866;12.462;2023-11-21T05:27:32;100527.16;;;16.21;100.00
43757;BME280;73222;41.866;12.462;2023-11-21T05:29:58;100532.38;;;16.21;100.00
43757;BME280;73222;41.866;12.462;2023-11-21T05:32:27;100523.66;;;16.20;100.00
43757;BME280;73222;41.866;12.462;2023-11-21T05:34:52;100521.97;;;16.18;100.00
43757;BME280;73222;41.866;12.462;2023-11-21T05:37:18;100522.94;;;16.14;100.00
43757;BME280;73222;41.866;12.462;2023-11-21T05:39:44;100516.75;;;16.18;100.00
43757;BME280;73222;41.866;12.462;2023-11-21T05:42:09;100511.69;;;16.12;100.00
43757;BME280;73222;41.866;12.462;2023-11-21T05:44:36;100502.03;;;16.15;100.00
43757;BME280;73222;41.866;12.462;2023-11-21T05:47:02;100513.31;;;16.16;100.00
43757;BME280;73222;41.866;12.462;2023-11-21T05:49:29;100509.88;;;16.14;100.00
43757;BME280;73222;41.866;12.462;2023-11-21T05:51:55;100509.81;;;16.17;100.00
43757;BME280;73222;41.866;12.462;2023-11-21T05:54:21;100503.56;;;16.24;100.00
43757;BME280;73222;41.866;12.462;2023-11-21T05:56:47;100499.38;;;16.17;100.00
43757;BME280;73222;41.866;12.462;2023-11-21T05:59:14;100485.34;;;16.21;100.00
43757;BME280;73222;41.866;12.462;2023-11-21T06:01:40;100488.06;;;16.16;100.00
43757;BME280;73222;41.866;12.462;2023-11-21T06:04:05;100495.84;;;16.18;100.00
43757;BME280;73222;41.866;12.462;2023-11-21T06:06:33;100491.44;;;16.21;100.00
43757;BME280;73222;41.866;12.462;2023-11-21T06:08:58;100485.34;;;16.23;100.00
43757;BME280;73222;41.866;12.462;2023-11-21T06:11:24;100486.19;;;16.21;100.00
43757;BME280;73222;41.866;12.462;2023-11-21T06:13:50;100488.03;;;16.18;100.00
43757;BME280;73222;41.866;12.462;2023-11-21T06:16:15;100482.84;;;16.16;100.00
43757;BME280;73222;41.866;12.462;2023-11-21T06:18:43;100488.72;;;16.26;100.00
43757;BME280;73222;41.866;12.462;2023-11-21T06:21:09;100483.66;;;16.20;100.00
43757;BME280;73222;41.866;12.462;2023-11-21T06:23:35;100472.31;;;16.21;100.00
43757;BME280;73222;41.866;12.462;2023-11-21T06:26:00;100475.72;;;16.25;100.00
43757;BME280;73222;41.866;12.462;2023-11-21T06:28:26;100482.56;;;16.29;100.00
43757;BME280;73222;41.866;12.462;2023-11-21T06:30:51;100480.81;;;16.29;100.00
43757;BME280;73222;41.866;12.462;2023-11-21T06:33:18;100481.72;;;16.28;100.00
43757;BME280;73222;41.866;12.462;2023-11-21T06:35:44;100492.09;;;16.31;100.00
43757;BME280;73222;41.866;12.462;2023-11-21T06:38:10;100494.56;;;16.39;100.00
43757;BME280;73222;41.866;12.462;2023-11-21T06:40:35;100490.25;;;16.37;100.00
43757;BME280;73222;41.866;12.462;2023-11-21T06:43:01;100494.56;;;16.38;100.00
43757;BME280;73222;41.866;12.462;2023-11-21T06:45:27;100493.78;;;16.34;100.00
43757;BME280;73222;41.866;12.462;2023-11-21T06:47:52;100492.03;;;16.34;100.00
43757;BME280;73222;41.866;12.462;2023-11-21T06:50:18;100490.28;;;16.33;100.00
43757;BME280;73222;41.866;12.462;2023-11-21T06:52:43;100470.97;;;16.41;100.00
43757;BME280;73222;41.866;12.462;2023-11-21T06:55:10;100472.69;;;16.42;100.00
43757;BME280;73222;41.866;12.462;2023-11-21T06:57:36;100465.72;;;16.44;100.00
43757;BME280;73222;41.866;12.462;2023-11-21T07:00:02;100460.69;;;16.34;100.00
43757;BME280;73222;41.866;12.462;2023-11-21T07:02:28;100473.66;;;16.39;100.00
43757;BME280;73222;41.866;12.462;2023-11-21T07:04:54;100476.16;;;16.44;100.00
43757;BME280;73222;41.866;12.462;2023-11-21T07:07:19;100475.28;;;16.43;100.00
43757;BME280;73222;41.866;12.462;2023-11-21T07:09:45;100461.44;;;16.40;100.00
43757;BME280;73222;41.866;12.462;2023-11-21T07:12:10;100466.53;;;16.46;100.00
43757;BME280;73222;41.866;12.462;2023-11-21T07:14:36;100474.44;;;16.43;100.00
43757;BME280;73222;41.866;12.462;2023-11-21T07:17:02;100481.28;;;16.47;100.00
43757;BME280;73222;41.866;12.462;2023-11-21T07:19:28;100472.66;;;16.45;100.00
43757;BME280;73222;41.866;12.462;2023-11-21T07:21:54;100470.75;;;16.50;100.00
43757;BME280;73222;41.866;12.462;2023-11-21T07:24:20;100460.31;;;16.50;100.00
43757;BME280;73222;41.866;12.462;2023-11-21T07:26:46;100442.91;;;16.49;100.00
43757;BME280;73222;41.866;12.462;2023-11-21T07:29:13;100445.38;;;16.57;100.00
43757;BME280;73222;41.866;12.462;2023-11-21T07:31:38;100438.47;;;16.54;100.00
43757;BME280;73222;41.866;12.462;2023-11-21T07:34:05;100440.94;;;16.60;100.00
43757;BME280;73222;41.866;12.462;2023-11-21T07:36:30;100450.09;;;16.41;100.00
43757;BME280;73222;41.866;12.462;2023-11-21T07:38:56;100465.25;;;16.25;100.00
43757;BME280;73222;41.866;12.462;2023-11-21T07:41:22;100469.00;;;16.13;100.00
43757;BME280;73222;41.866;12.462;2023-11-21T07:43:47;100469.91;;;16.12;100.00
43757;BME280;73222;41.866;12.462;2023-11-21T07:46:13;100462.09;;;16.10;100.00
43757;BME280;73222;41.866;12.462;2023-11-21T07:48:40;100484.78;;;16.08;100.00
43757;BME280;73222;41.866;12.462;2023-11-21T07:51:06;100482.28;;;16.02;100.00
43757;BME280;73222;41.866;12.462;2023-11-21T07:53:34;100493.66;;;15.98;100.00
43757;BME280;73222;41.866;12.462;2023-11-21T07:56:04;100516.41;;;15.89;100.00
43757;BME280;73222;41.866;12.462;2023-11-21T07:58:30;100509.66;;;15.80;100.00
43757;BME280;73222;41.866;12.462;2023-11-21T08:00:56;100511.44;;;15.78;100.00
43757;BME280;73222;41.866;12.462;2023-11-21T08:03:21;100499.22;;;15.80;100.00
43757;BME280;73222;41.866;12.462;2023-11-21T08:05:47;100499.91;;;15.89;100.00
43757;BME280;73222;41.866;12.462;2023-11-21T08:08:12;100491.16;;;15.93;100.00
43757;BME280;73222;41.866;12.462;2023-11-21T08:10:38;100492.81;;;15.97;100.00
43757;BME280;73222;41.866;12.462;2023-11-21T08:13:04;100494.50;;;16.00;100.00
43757;BME280;73222;41.866;12.462;2023-11-21T08:15:30;100490.91;;;16.05;100.00
43757;BME280;73222;41.866;12.462;2023-11-21T08:17:57;100494.41;;;16.04;100.00
43757;BME280;73222;41.866;12.462;2023-11-21T08:20:24;100493.53;;;16.05;100.00
43757;BME280;73222;41.866;12.462;2023-11-21T08:22:50;100488.09;;;16.15;100.00
43757;BME280;73222;41.866;12.462;2023-11-21T08:25:17;100481.06;;;16.18;100.00
43757;BME280;73222;41.866;12.462;2023-11-21T08:27:45;100481.59;;;16.34;100.00
43757;BME280;73222;41.866;12.462;2023-11-21T08:30:11;100475.28;;;16.43;100.00
43757;BME280;73222;41.866;12.462;2023-11-21T08:32:37;100472.28;;;16.60;100.00
43757;BME280;73222;41.866;12.462;2023-11-21T08:35:03;100471.75;;;16.82;100.00
43757;BME280;73222;41.866;12.462;2023-11-21T08:37:28;100462.16;;;16.83;100.00
43757;BME280;73222;41.866;12.462;2023-11-21T08:39:58;100442.13;;;16.83;100.00
43757;BME280;73222;41.866;12.462;2023-11-21T08:42:24;100435.09;;;16.85;100.00
43757;BME280;73222;41.866;12.462;2023-11-21T08:44:49;100426.25;;;16.89;100.00
43757;BME280;73222;41.866;12.462;2023-11-21T08:47:15;100421.91;;;16.90;100.00
43757;BME280;73222;41.866;12.462;2023-11-21T08:49:40;100429.88;;;16.85;100.00
43757;BME280;73222;41.866;12.462;2023-11-21T08:52:06;100429.09;;;16.82;100.00
43757;BME280;73222;41.866;12.462;2023-11-21T08:54:32;100416.75;;;16.87;100.00
43757;BME280;73222;41.866;12.462;2023-11-21T08:56:57;100414.81;;;16.95;100.00
43757;BME280;73222;41.866;12.462;2023-11-21T08:59:25;100422.47;;;17.03;100.00
43757;BME280;73222;41.866;12.462;2023-11-21T09:01:51;100431.13;;;17.05;100.00
43757;BME280;73222;41.866;12.462;2023-11-21T09:04:17;100422.31;;;17.09;100.00
43757;BME280;73222;41.866;12.462;2023-11-21T09:06:42;100422.47;;;17.03;100.00
43757;BME280;73222;41.866;12.462;2023-11-21T09:09:08;100418.41;;;16.89;100.00
43757;BME280;73222;41.866;12.462;2023-11-21T09:11:35;100417.50;;;16.90;100.00
43757;BME280;73222;41.866;12.462;2023-11-21T09:14:01;100417.72;;;16.83;100.00
43757;BME280;73222;41.866;12.462;2023-11-21T09:16:27;100419.66;;;16.76;100.00
43757;BME280;73222;41.866;12.462;2023-11-21T09:18:52;100425.94;;;16.67;100.00
43757;BME280;73222;41.866;12.462;2023-11-21T09:21:17;100420.03;;;16.60;100.00
43757;BME280;73222;41.866;12.462;2023-11-21T09:23:47;100425.38;;;16.54;100.00
43757;BME280;73222;41.866;12.462;2023-11-21T09:26:13;100425.38;;;16.54;100.00
43757;BME280;73222;41.866;12.462;2023-11-21T09:28:41;100416.88;;;16.46;100.00
43757;BME280;73222;41.866;12.462;2023-11-21T09:31:08;100409.84;;;16.48;100.00
43757;BME280;73222;41.866;12.462;2023-11-21T09:33:34;100402.84;;;16.50;100.00
43757;BME280;73222;41.866;12.462;2023-11-21T09:36:00;100401.06;;;16.52;100.00
43757;BME280;73222;41.866;12.462;2023-11-21T09:38:26;100376.50;;;16.59;100.00
43757;BME280;73222;41.866;12.462;2023-11-21T09:40:54;100368.19;;;16.78;100.00
43757;BME280;73222;41.866;12.462;2023-11-21T09:43:20;100381.09;;;16.84;100.00
43757;BME280;73222;41.866;12.462;2023-11-21T09:45:48;100367.19;;;16.82;100.00
43757;BME280;73222;41.866;12.462;2023-11-21T09:48:19;100374.31;;;16.77;100.00
43757;BME280;73222;41.866;12.462;2023-11-21T09:50:46;100371.94;;;16.68;100.00
43757;BME280;73222;41.866;12.462;2023-11-21T09:53:19;100349.19;;;16.71;100.00
43757;BME280;73222;41.866;12.462;2023-11-21T09:55:52;100357.97;;;16.69;100.00
43757;BME280;73222;41.866;12.462;2023-11-21T09:58:19;100336.16;;;16.70;100.00
43757;BME280;73222;41.866;12.462;2023-11-21T10:00:47;100330.94;;;16.70;100.00
43757;BME280;73222;41.866;12.462;2023-11-21T10:03:13;100322.06;;;16.75;100.00
43757;BME280;73222;41.866;12.462;2023-11-21T10:05:40;100313.94;;;16.86;100.00
43757;BME280;73222;41.866;12.462;2023-11-21T10:08:10;100302.41;;;16.94;100.00
43757;BME280;73222;41.866;12.462;2023-11-21T10:10:37;100291.72;;;17.03;100.00
43757;BME280;73222;41.866;12.462;2023-11-21T10:13:04;100272.06;;;17.20;100.00
43757;BME280;73222;41.866;12.462;2023-11-21T10:15:35;100252.78;;;17.24;100.00
43757;BME280;73222;41.866;12.462;2023-11-21T10:18:06;100234.25;;;17.30;100.00
43757;BME280;73222;41.866;12.462;2023-11-21T10:20:33;100231.28;;;17.42;100.00
43757;BME280;73222;41.866;12.462;2023-11-21T10:23:03;100204.63;;;17.58;100.00
43757;BME280;73222;41.866;12.462;2023-11-21T10:25:29;100204.22;;;17.70;100.00
43757;BME280;73222;41.866;12.462;2023-11-21T10:27:58;100185.03;;;17.71;100.00
43757;BME280;73222;41.866;12.462;2023-11-21T10:30:34;100172.97;;;17.66;100.00
43757;BME280;73222;41.866;12.462;2023-11-21T10:33:02;100159.13;;;17.62;100.00
43757;BME280;73222;41.866;12.462;2023-11-21T10:35:47;100152.44;;;17.80;100.00
43757;BME280;73222;41.866;12.462;2023-11-21T10:38:19;100131.00;;;18.45;100.00
43757;BME280;73222;41.866;12.462;2023-11-21T10:40:46;100102.63;;;19.25;100.00
43757;BME280;73222;41.866;12.462;2023-11-21T10:43:13;100084.13;;;19.28;100.00
43757;BME280;73222;41.866;12.462;2023-11-21T10:45:40;100094.84;;;19.44;100.00
43757;BME280;73222;41.866;12.462;2023-11-21T10:48:07;100099.88;;;19.28;100.00
43757;BME280;73222;41.866;12.462;2023-11-21T10:50:40;100082.81;;;19.18;100.00
43757;BME280;73222;41.866;12.462;2023-11-21T10:53:06;100078.75;;;18.87;100.00
43757;BME280;73222;41.866;12.462;2023-11-21T10:55:35;100082.38;;;19.06;100.00
43757;BME280;73222;41.866;12.462;2023-11-21T10:58:02;100083.22;;;18.85;100.00
43757;BME280;73222;41.866;12.462;2023-11-21T11:00:30;100075.25;;;18.64;100.00
43757;BME280;73222;41.866;12.462;2023-11-21T11:02:56;100073.41;;;18.44;100.00
43757;BME280;73222;41.866;12.462;2023-11-21T11:05:29;100064.44;;;18.25;100.00
43757;BME280;73222;41.866;12.462;2023-11-21T11:08:15;100064.91;;;18.13;100.00
43757;BME280;73222;41.866;12.462;2023-11-21T11:10:46;100070.25;;;18.10;100.00
43757;BME280;73222;41.866;12.462;2023-11-21T11:13:15;100074.34;;;18.17;100.00
43757;BME280;73222;41.866;12.462;2023-11-21T11:15:42;100066.06;;;18.30;100.00
43757;BME280;73222;41.866;12.462;2023-11-21T11:18:09;100059.56;;;18.40;100.00
43757;BME280;73222;41.866;12.462;2023-11-21T11:20:37;100055.34;;;18.60;100.00
43757;BME280;73222;41.866;12.462;2023-11-21T11:23:13;100058.16;;;19.43;100.00
43757;BME280;73222;41.866;12.462;2023-11-21T11:28:42;100028.25;;;20.08;100.00
43757;BME280;73222;41.866;12.462;2023-11-21T11:31:31;100024.06;;;20.61;100.00
43757;BME280;73222;41.866;12.462;2023-11-21T11:34:29;100004.72;;;22.35;100.00
43757;BME280;73222;41.866;12.462;2023-11-21T11:39:34;99991.78;;;23.55;100.00
43757;BME280;73222;41.866;12.462;2023-11-21T11:42:02;99985.34;;;22.53;100.00
43757;BME280;73222;41.866;12.462;2023-11-21T11:47:29;99974.75;;;21.54;100.00
43757;BME280;73222;41.866;12.462;2023-11-21T11:50:09;99979.38;;;22.33;100.00
43757;BME280;73222;41.866;12.462;2023-11-21T11:52:53;99967.16;;;23.98;100.00
43757;BME280;73222;41.866;12.462;2023-11-21T11:55:23;99959.66;;;24.05;100.00
43757;BME280;73222;41.866;12.462;2023-11-21T11:57:54;99947.78;;;24.12;100.00
43757;BME280;73222;41.866;12.462;2023-11-21T12:00:21;99944.31;;;22.79;100.00
43757;BME280;73222;41.866;12.462;2023-11-21T12:02:59;99950.03;;;22.07;100.00
43757;BME280;73222;41.866;12.462;2023-11-21T12:05:27;99936.44;;;21.82;100.00
43757;BME280;73222;41.866;12.462;2023-11-21T12:07:57;99928.81;;;20.91;100.00
43757;BME280;73222;41.866;12.462;2023-11-21T12:10:27;99926.91;;;20.76;100.00
43757;BME280;73222;41.866;12.462;2023-11-21T12:12:56;99917.31;;;20.57;100.00
43757;BME280;73222;41.866;12.462;2023-11-21T12:15:23;99914.88;;;20.71;100.00
43757;BME280;73222;41.866;12.462;2023-11-21T12:17:49;99915.72;;;20.35;100.00
43757;BME280;73222;41.866;12.462;2023-11-21T12:20:18;99920.44;;;21.00;100.00
43757;BME280;73222;41.866;12.462;2023-11-21T12:22:45;99924.66;;;21.05;100.00
43757;BME280;73222;41.866;12.462;2023-11-21T12:25:18;99925.66;;;21.53;100.00
43757;BME280;73222;41.866;12.462;2023-11-21T12:27:51;99919.09;;;23.04;100.00
43757;BME280;73222;41.866;12.462;2023-11-21T12:30:18;99911.47;;;23.28;100.00
43757;BME280;73222;41.866;12.462;2023-11-21T12:32:47;99905.91;;;23.91;100.00
43757;BME280;73222;41.866;12.462;2023-11-21T12:35:13;99911.28;;;25.13;100.00
43757;BME280;73222;41.866;12.462;2023-11-21T12:37:39;99912.53;;;24.26;100.00